createdAt,value
2019-03-04T00:02:30.103Z,6.20
2019-03-04T00:05:04.552Z,6.97
2019-03-04T00:07:35.680Z,6.57
2019-03-04T00:10:07.559Z,6.03
2019-03-04T00:12:38.672Z,6.50
2019-03-04T00:15:09.876Z,6.00
2019-03-04T00:17:41.042Z,6.60
2019-03-04T00:20:12.205Z,5.93
2019-03-04T00:22:43.301Z,6.13
2019-03-04T00:25:14.607Z,5.90
2019-03-04T00:27:45.707Z,6.73
2019-03-04T00:30:17.130Z,6.40
2019-03-04T00:32:48.241Z,6.80
2019-03-04T00:35:19.282Z,6.30
2019-03-04T00:37:50.429Z,6.57
2019-03-04T00:40:21.475Z,6.33
2019-03-04T00:42:52.515Z,6.47
2019-03-04T00:45:23.567Z,5.93
2019-03-04T00:47:54.619Z,6.53
2019-03-04T00:50:25.662Z,6.10
2019-03-04T00:52:56.705Z,7.00
2019-03-04T00:55:27.730Z,6.47
2019-03-04T00:57:58.801Z,6.50
2019-03-04T01:00:29.984Z,6.90
2019-03-04T01:03:01.047Z,6.60
2019-03-04T01:05:32.096Z,6.53
2019-03-04T01:08:03.110Z,6.97
2019-03-04T01:10:34.280Z,6.90
2019-03-04T01:13:05.507Z,7.40
2019-03-04T01:15:37.198Z,6.70
2019-03-04T01:18:08.282Z,6.90
2019-03-04T01:20:39.392Z,7.17
2019-03-04T01:23:10.420Z,7.03
2019-03-04T01:25:41.502Z,7.30
2019-03-04T01:28:12.535Z,7.03
2019-03-04T01:30:43.617Z,6.80
2019-03-04T01:33:14.979Z,6.43
2019-03-04T01:35:46.088Z,7.07
2019-03-04T01:38:17.154Z,6.00
2019-03-04T01:40:48.246Z,6.50
2019-03-04T01:43:19.277Z,6.27
2019-03-04T01:45:50.368Z,6.03
2019-03-04T01:48:21.423Z,5.93
2019-03-04T01:50:52.520Z,6.20
2019-03-04T01:53:23.630Z,5.73
2019-03-04T01:55:54.712Z,5.87
2019-03-04T01:58:25.754Z,6.03
2019-03-04T02:00:56.844Z,6.37
2019-03-04T02:03:27.901Z,6.27
2019-03-04T02:05:59.038Z,5.50
2019-03-04T02:08:30.079Z,5.60
2019-03-04T02:11:01.163Z,5.37
2019-03-04T02:13:32.209Z,5.30
2019-03-04T02:16:03.298Z,4.73
2019-03-04T02:18:34.377Z,5.17
2019-03-04T02:21:05.473Z,4.53
2019-03-04T02:23:36.514Z,4.90
2019-03-04T02:26:21.786Z,4.80
2019-03-04T02:28:52.841Z,4.37
2019-03-04T02:31:23.920Z,5.17
2019-03-04T02:33:54.962Z,4.87
2019-03-04T02:36:26.042Z,5.60
2019-03-04T02:38:57.085Z,5.40
2019-03-04T02:41:28.114Z,5.03
2019-03-04T02:43:59.147Z,4.93
2019-03-04T02:46:30.267Z,4.70
2019-03-04T02:49:01.307Z,4.63
2019-03-04T02:51:32.364Z,4.00
2019-03-04T02:54:03.418Z,4.53
2019-03-04T02:56:34.502Z,4.70
2019-03-04T02:59:05.880Z,4.27
2019-03-04T03:01:36.908Z,4.33
2019-03-04T03:04:07.944Z,4.20
2019-03-04T03:06:38.989Z,4.13
2019-03-04T03:09:11.639Z,4.50
2019-03-04T03:11:42.666Z,3.80
2019-03-04T03:14:13.706Z,4.07
2019-03-04T03:16:44.752Z,4.07
2019-03-04T03:19:15.806Z,3.50
2019-03-04T03:21:46.894Z,3.50
2019-03-04T03:24:17.967Z,3.37
2019-03-04T03:26:49.002Z,3.70
2019-03-04T03:29:20.051Z,3.90
2019-03-04T03:31:51.161Z,3.77
2019-03-04T03:34:22.177Z,3.20
2019-03-04T03:36:53.215Z,3.30
2019-03-04T03:39:24.253Z,3.40
2019-03-04T03:41:55.328Z,3.13
2019-03-04T03:44:26.464Z,3.07
2019-03-04T03:46:57.580Z,3.40
2019-03-04T03:49:28.615Z,2.90
2019-03-04T03:51:59.644Z,3.10
2019-03-04T03:54:30.676Z,3.53
2019-03-04T03:57:01.715Z,2.57
2019-03-04T03:59:32.836Z,2.90
2019-03-04T04:02:03.918Z,3.07
2019-03-04T04:04:34.965Z,2.80
2019-03-04T04:07:06.076Z,2.83
2019-03-04T04:09:37.181Z,2.47
2019-03-04T04:12:08.241Z,2.70
2019-03-04T04:14:39.348Z,2.40
2019-03-04T04:17:10.986Z,2.90
2019-03-04T04:19:42.074Z,2.57
2019-03-04T04:22:13.214Z,2.23
2019-03-04T04:24:44.399Z,2.23
2019-03-04T04:27:15.440Z,2.40
2019-03-04T04:29:46.529Z,2.20
2019-03-04T04:32:17.599Z,2.00
2019-03-04T04:34:48.689Z,3.13
2019-03-04T04:37:19.739Z,2.40
2019-03-04T04:39:50.822Z,2.70
2019-03-04T04:42:22.013Z,2.20
2019-03-04T04:44:53.122Z,2.43
2019-03-04T04:47:24.195Z,3.43
2019-03-04T04:49:55.212Z,2.77
2019-03-04T04:52:26.278Z,2.17
2019-03-04T04:54:57.374Z,2.33
2019-03-04T04:57:28.430Z,2.43
2019-03-04T04:59:59.452Z,2.63
2019-03-04T05:02:30.520Z,2.30
2019-03-04T05:05:01.619Z,2.33
2019-03-04T05:07:32.687Z,2.10
2019-03-04T05:10:03.752Z,2.37
2019-03-04T05:12:34.793Z,2.13
2019-03-04T05:15:06.575Z,2.40
2019-03-04T05:17:39.680Z,2.40
2019-03-04T05:20:17.314Z,2.10
2019-03-04T05:22:48.369Z,2.20
2019-03-04T05:25:19.419Z,2.30
2019-03-04T05:27:50.635Z,2.60
2019-03-04T05:30:21.867Z,2.23
2019-03-04T05:32:52.939Z,2.33
2019-03-04T05:35:24.002Z,2.40
2019-03-04T05:37:55.062Z,2.23
2019-03-04T05:40:26.086Z,2.40
2019-03-04T05:42:57.136Z,2.10
2019-03-04T05:45:28.171Z,2.30
2019-03-04T05:47:59.215Z,2.40
2019-03-04T05:50:30.287Z,2.23
2019-03-04T05:53:01.399Z,2.80
2019-03-04T05:55:32.444Z,3.00
2019-03-04T05:58:03.511Z,2.53
2019-03-04T06:00:39.453Z,3.03
2019-03-04T06:03:11.565Z,2.57
2019-03-04T06:05:42.604Z,2.40
2019-03-04T06:08:13.678Z,2.53
2019-03-04T06:10:44.712Z,2.60
2019-03-04T06:13:15.785Z,2.20
2019-03-04T06:15:48.335Z,2.40
2019-03-04T06:18:19.460Z,2.40
2019-03-04T06:20:50.608Z,2.40
2019-03-04T06:23:21.780Z,2.60
2019-03-04T06:25:52.846Z,2.70
2019-03-04T06:28:23.933Z,2.40
2019-03-04T06:30:55.392Z,2.37
2019-03-04T06:33:26.690Z,2.33
2019-03-04T06:35:57.791Z,2.50
2019-03-04T06:38:28.976Z,2.70
2019-03-04T06:41:00.097Z,2.20
2019-03-04T06:43:31.206Z,2.40
2019-03-04T06:46:02.899Z,2.60
2019-03-04T06:48:34.277Z,2.80
2019-03-04T06:51:08.164Z,2.70
2019-03-04T06:53:45.666Z,2.37
2019-03-04T06:56:33.313Z,2.20
2019-03-04T06:59:14.362Z,2.53
2019-03-04T07:01:51.561Z,2.10
2019-03-04T07:04:43.686Z,1.90
2019-03-04T07:07:14.894Z,2.00
2019-03-04T07:09:46.004Z,2.60
2019-03-04T07:12:17.479Z,2.70
2019-03-04T07:14:48.675Z,2.33
2019-03-04T07:17:20.104Z,2.20
2019-03-04T07:20:09.186Z,2.97
2019-03-04T07:22:40.388Z,3.03
2019-03-04T07:25:12.169Z,2.00
2019-03-04T07:27:44.417Z,2.00
2019-03-04T07:30:16.680Z,2.20
2019-03-04T07:32:48.114Z,2.20
2019-03-04T07:35:19.427Z,2.03
2019-03-04T07:38:09.999Z,1.97
2019-03-04T07:40:41.102Z,2.10
2019-03-04T07:43:12.264Z,2.00
2019-03-04T07:45:43.379Z,1.93
2019-03-04T07:48:14.620Z,1.90
2019-03-04T07:50:45.740Z,1.60
2019-03-04T07:53:19.031Z,1.70
2019-03-04T07:55:49.666Z,1.83
2019-03-04T07:58:20.772Z,1.63
2019-03-04T08:00:52.250Z,1.77
2019-03-04T08:03:23.575Z,2.00
2019-03-04T08:05:54.818Z,1.73
2019-03-04T08:08:25.915Z,1.70
2019-03-04T08:11:40.586Z,1.70
2019-03-04T08:14:12.289Z,1.90
2019-03-04T08:16:43.523Z,1.47
2019-03-04T08:19:14.760Z,1.43
2019-03-04T08:21:45.865Z,1.53
2019-03-04T08:24:16.982Z,1.63
2019-03-04T08:26:48.207Z,1.60
2019-03-04T08:29:19.465Z,1.30
2019-03-04T08:31:50.690Z,1.20
2019-03-04T08:34:30.735Z,1.30
2019-03-04T08:36:54.975Z,1.40
2019-03-04T08:39:26.150Z,1.17
2019-03-04T08:41:57.535Z,1.40
2019-03-04T08:44:31.004Z,1.30
2019-03-04T08:47:01.704Z,1.13
2019-03-04T08:49:32.911Z,1.40
2019-03-04T08:52:04.006Z,1.40
2019-03-04T08:54:35.663Z,1.00
2019-03-04T08:57:06.756Z,0.90
2019-03-04T08:59:38.023Z,0.80
2019-03-04T09:02:09.993Z,0.70
2019-03-04T09:04:41.283Z,0.60
2019-03-04T09:07:12.570Z,0.70
2019-03-04T09:09:43.728Z,0.63
2019-03-04T09:12:14.965Z,0.60
2019-03-04T09:14:46.132Z,0.53
2019-03-04T09:17:17.292Z,0.53
2019-03-04T09:19:48.615Z,0.30
2019-03-04T09:22:19.850Z,0.13
2019-03-04T09:24:50.955Z,0.27
2019-03-04T09:27:22.016Z,0.20
2019-03-04T09:29:53.317Z,0.10
2019-03-04T09:32:24.384Z,0.27
2019-03-04T09:34:55.362Z,0.17
2019-03-04T09:37:26.711Z,0.30
2019-03-04T09:39:57.956Z,0.60
2019-03-04T09:42:30.426Z,0.50
2019-03-04T09:45:01.438Z,0.50
2019-03-04T09:47:32.639Z,0.90
2019-03-04T09:50:03.853Z,0.90
2019-03-04T09:52:37.840Z,0.90
2019-03-04T09:55:10.143Z,0.80
2019-03-04T09:57:41.209Z,0.63
2019-03-04T10:00:42.438Z,0.60
2019-03-04T10:04:15.442Z,0.70
2019-03-04T10:07:37.900Z,0.63
2019-03-04T10:11:25.025Z,0.90
2019-03-04T10:15:07.990Z,0.40
2019-03-04T10:18:49.818Z,0.67
2019-03-04T10:22:15.950Z,0.40
2019-03-04T10:25:50.252Z,0.30
2019-03-04T10:29:26.058Z,0.40
2019-03-04T10:32:50.016Z,0.40
2019-03-04T10:35:50.378Z,0.33
2019-03-04T10:39:33.874Z,0.50
2019-03-04T10:43:01.681Z,0.37
2019-03-04T10:46:08.479Z,0.50
2019-03-04T10:48:39.675Z,0.70
2019-03-04T10:51:10.947Z,0.47
2019-03-04T10:53:42.047Z,0.40
2019-03-04T10:56:13.436Z,0.33
2019-03-04T10:58:44.982Z,0.47
2019-03-04T11:01:16.696Z,0.57
2019-03-04T11:03:48.486Z,0.80
2019-03-04T11:06:23.727Z,1.10
2019-03-04T11:08:56.048Z,0.40
2019-03-04T11:11:30.064Z,0.50
2019-03-04T11:14:03.380Z,0.40
2019-03-04T11:16:34.650Z,0.80
2019-03-04T11:19:06.816Z,0.53
2019-03-04T11:21:40.695Z,0.50
2019-03-04T11:24:13.463Z,0.60
2019-03-04T11:26:45.019Z,0.50
2019-03-04T11:29:16.387Z,0.80
2019-03-04T11:31:47.886Z,0.57
2019-03-04T11:34:19.449Z,0.63
2019-03-04T11:36:50.830Z,0.70
2019-03-04T11:39:50.815Z,0.60
2019-03-04T11:42:22.203Z,0.60
2019-03-04T11:44:53.762Z,0.60
2019-03-04T11:47:27.210Z,0.60
2019-03-04T11:49:58.558Z,0.70
2019-03-04T11:52:30.145Z,0.70
2019-03-04T11:55:06.007Z,0.73
2019-03-04T11:57:37.102Z,0.77
2019-03-04T12:00:16.441Z,0.77
2019-03-04T12:02:47.544Z,0.67
2019-03-04T12:05:18.852Z,0.80
2019-03-04T12:07:50.128Z,0.63
2019-03-04T12:10:21.096Z,0.77
2019-03-04T12:12:52.017Z,0.90
2019-03-04T12:15:23.378Z,0.97
2019-03-04T12:17:56.725Z,0.87
2019-03-04T12:20:32.105Z,0.63
2019-03-04T12:23:06.757Z,0.60
2019-03-04T12:25:38.123Z,0.80
2019-03-04T12:28:09.750Z,0.57
2019-03-04T12:30:40.986Z,0.80
2019-03-04T12:33:13.228Z,0.97
2019-03-04T12:35:44.619Z,0.70
2019-03-04T12:38:16.073Z,0.90
2019-03-04T12:40:49.276Z,1.13
2019-03-04T12:43:20.613Z,1.33
2019-03-04T12:45:52.110Z,1.00
2019-03-04T12:48:23.702Z,1.10
2019-03-04T12:50:55.118Z,1.13
2019-03-04T12:53:26.478Z,0.90
2019-03-04T12:55:57.836Z,0.90
2019-03-04T12:58:29.215Z,0.50
2019-03-04T13:01:00.627Z,0.57
2019-03-04T13:03:32.024Z,0.60
2019-03-04T13:06:03.116Z,0.40
2019-03-04T13:08:34.270Z,0.30
2019-03-04T13:11:05.269Z,0.57
2019-03-04T13:13:36.251Z,0.30
2019-03-04T13:16:07.687Z,0.70
2019-03-04T13:18:38.935Z,0.50
2019-03-04T13:21:10.402Z,0.37
2019-03-04T13:23:41.501Z,0.40
2019-03-04T13:26:12.729Z,0.40
2019-03-04T13:28:43.616Z,0.50
2019-03-04T13:31:14.767Z,0.40
2019-03-04T13:33:45.829Z,0.80
2019-03-04T13:36:17.005Z,0.80
2019-03-04T13:38:48.039Z,0.77
2019-03-04T13:41:19.115Z,0.93
2019-03-04T13:43:50.158Z,1.03
2019-03-04T13:46:21.662Z,0.80
2019-03-04T13:48:55.726Z,0.90
2019-03-04T13:51:27.070Z,1.00
2019-03-04T13:53:58.096Z,1.00
2019-03-04T13:56:29.177Z,0.90
2019-03-04T13:59:00.231Z,1.20
2019-03-04T14:01:31.367Z,1.07
2019-03-04T14:04:02.412Z,0.83
2019-03-04T14:06:33.474Z,0.60
2019-03-04T14:09:06.253Z,0.50
2019-03-04T14:11:37.278Z,0.63
2019-03-04T14:14:08.378Z,0.67
2019-03-04T14:16:39.418Z,0.53
2019-03-04T14:19:12.048Z,0.60
2019-03-04T14:21:43.620Z,0.50
2019-03-04T14:24:14.659Z,0.50
2019-03-04T14:26:45.715Z,1.00
2019-03-04T14:29:16.768Z,1.03
2019-03-04T14:31:47.829Z,0.73
2019-03-04T14:34:18.864Z,1.00
2019-03-04T14:36:49.902Z,1.20
2019-03-04T14:39:20.948Z,1.30
2019-03-04T14:41:51.989Z,1.20
2019-03-04T14:44:23.182Z,1.30
2019-03-04T14:46:54.205Z,1.20
2019-03-04T14:49:25.349Z,1.20
2019-03-04T14:51:56.429Z,1.00
2019-03-04T14:54:27.367Z,1.20
2019-03-04T14:56:58.263Z,1.50
2019-03-04T14:59:29.179Z,1.40
2019-03-04T15:02:00.064Z,1.10
2019-03-04T15:04:30.983Z,1.20
2019-03-04T15:07:01.888Z,1.17
2019-03-04T15:09:32.961Z,1.40
2019-03-04T15:12:04.002Z,0.77
2019-03-04T15:14:35.095Z,1.17
2019-03-04T15:17:06.246Z,1.70
2019-03-04T15:19:37.371Z,1.03
2019-03-04T15:22:08.451Z,1.33
2019-03-04T15:24:39.566Z,1.30
2019-03-04T15:27:10.605Z,2.87
2019-03-04T15:29:41.561Z,2.10
2019-03-04T15:32:12.468Z,3.50
2019-03-04T15:34:43.517Z,6.70
2019-03-04T15:37:16.168Z,2.10
2019-03-04T15:39:47.206Z,1.97
2019-03-04T15:42:18.087Z,1.53
2019-03-04T15:44:49.007Z,1.50
2019-03-04T15:47:19.881Z,1.57
2019-03-04T15:49:50.803Z,1.43
2019-03-04T15:52:30.738Z,1.50
2019-03-04T15:55:04.831Z,1.27
2019-03-04T15:57:35.707Z,1.30
2019-03-04T16:00:08.670Z,1.50
2019-03-04T16:02:39.787Z,1.30
2019-03-04T16:05:12.073Z,1.70
2019-03-04T16:07:43.177Z,1.70
2019-03-04T16:10:16.561Z,1.63
2019-03-04T16:12:47.464Z,1.30
2019-03-04T16:15:19.122Z,1.50
2019-03-04T16:17:50.353Z,1.37
2019-03-04T16:20:21.282Z,1.50
2019-03-04T16:22:52.565Z,2.03
2019-03-04T16:25:23.644Z,2.57
2019-03-04T16:28:03.629Z,2.40
2019-03-04T16:30:34.603Z,2.00
2019-03-04T16:33:05.489Z,2.00
2019-03-04T16:35:36.378Z,2.27
2019-03-04T16:38:07.351Z,2.10
2019-03-04T16:40:38.287Z,1.73
2019-03-04T16:43:09.279Z,1.90
2019-03-04T16:45:40.371Z,2.07
2019-03-04T16:48:11.246Z,1.80
2019-03-04T16:50:42.489Z,1.73
2019-03-04T16:53:14.930Z,2.00
2019-03-04T16:55:45.835Z,2.00
2019-03-04T16:58:16.762Z,2.00
2019-03-04T17:00:49.032Z,2.53
2019-03-04T17:03:20.035Z,2.03
2019-03-04T17:05:51.020Z,2.10
2019-03-04T17:08:22.104Z,2.60
2019-03-04T17:10:54.586Z,2.30
2019-03-04T17:13:25.651Z,1.70
2019-03-04T17:15:56.639Z,1.83
2019-03-04T17:18:27.554Z,2.10
2019-03-04T17:20:58.431Z,2.03
2019-03-04T17:23:29.425Z,1.70
2019-03-04T17:26:00.341Z,1.87
2019-03-04T17:28:31.246Z,1.80
2019-03-04T17:31:02.174Z,2.40
2019-03-04T17:33:33.042Z,2.20
2019-03-04T17:36:03.959Z,1.77
2019-03-04T17:38:34.836Z,1.80
2019-03-04T17:41:05.757Z,1.87
2019-03-04T17:43:36.620Z,1.80
2019-03-04T17:46:07.631Z,2.57
2019-03-04T17:48:38.595Z,2.37
2019-03-04T17:51:09.559Z,2.80
2019-03-04T17:53:40.428Z,2.00
2019-03-04T17:56:11.356Z,2.47
2019-03-04T17:58:42.249Z,2.27
2019-03-04T18:01:13.288Z,2.10
2019-03-04T18:03:44.271Z,2.23
2019-03-04T18:06:15.185Z,2.37
2019-03-04T18:08:46.121Z,2.10
2019-03-04T18:11:17.047Z,2.33
2019-03-04T18:13:47.975Z,2.27
2019-03-04T18:16:18.922Z,2.30
2019-03-04T18:18:49.844Z,2.33
2019-03-04T18:21:20.756Z,2.30
2019-03-04T18:23:52.235Z,2.20
2019-03-04T18:27:18.861Z,2.60
2019-03-04T18:30:31.274Z,2.70
2019-03-04T18:34:17.953Z,2.43
2019-03-04T18:37:39.593Z,2.67
2019-03-04T18:41:02.239Z,2.30
2019-03-04T18:45:01.229Z,2.13
2019-03-04T18:48:22.147Z,2.27
2019-03-04T18:50:53.121Z,2.30
2019-03-04T18:53:24.088Z,2.17
2019-03-04T18:55:54.965Z,1.67
2019-03-04T18:58:26.816Z,2.47
2019-03-04T19:00:57.826Z,2.70
2019-03-04T19:03:28.810Z,2.90
2019-03-04T19:05:59.695Z,2.53
2019-03-04T19:08:30.732Z,2.27
2019-03-04T19:11:01.635Z,2.10
2019-03-04T19:13:32.595Z,3.03
2019-03-04T19:16:03.572Z,1.70
2019-03-04T19:18:34.553Z,2.60
2019-03-04T19:21:13.850Z,1.80
2019-03-04T19:23:44.782Z,1.50
2019-03-04T19:26:15.960Z,2.10
2019-03-04T19:28:47.040Z,1.60
2019-03-04T19:31:18.036Z,2.10
2019-03-04T19:33:48.966Z,1.87
2019-03-04T19:36:19.853Z,2.07
2019-03-04T19:38:50.780Z,2.10
2019-03-04T19:41:22.799Z,1.97
2019-03-04T19:43:53.823Z,1.67
2019-03-04T19:46:24.807Z,2.13
2019-03-04T19:48:55.742Z,1.93
2019-03-04T19:51:26.649Z,1.80
2019-03-04T19:53:59.044Z,1.63
2019-03-04T19:56:29.927Z,1.70
2019-03-04T19:59:01.289Z,1.70
2019-03-04T20:01:32.263Z,1.73
2019-03-04T20:04:03.177Z,1.70
2019-03-04T20:06:34.064Z,1.30
2019-03-04T20:09:07.077Z,2.17
2019-03-04T20:11:38.928Z,1.90
2019-03-04T20:14:10.120Z,1.70
2019-03-04T20:16:41.005Z,1.50
2019-03-04T20:19:12.035Z,2.13
2019-03-04T20:21:43.146Z,2.30
2019-03-04T20:24:14.033Z,1.70
2019-03-04T20:26:45.013Z,2.10
2019-03-04T20:29:15.923Z,2.33
2019-03-04T20:31:46.799Z,1.93
2019-03-04T20:34:17.765Z,1.80
2019-03-04T20:36:48.662Z,2.23
2019-03-04T20:39:20.132Z,2.10
2019-03-04T20:41:51.062Z,2.57
2019-03-04T20:44:21.941Z,2.73
2019-03-04T20:46:52.803Z,2.10
2019-03-04T20:49:23.681Z,2.30
2019-03-04T20:51:56.189Z,2.17
2019-03-04T20:54:27.205Z,2.23
2019-03-04T20:56:58.192Z,2.50
2019-03-04T20:59:29.057Z,2.93
2019-03-04T21:01:59.935Z,2.73
2019-03-04T21:04:33.428Z,2.23
2019-03-04T21:07:07.997Z,2.70
2019-03-04T21:09:42.671Z,2.60
2019-03-04T21:12:15.667Z,2.80
2019-03-04T21:14:46.595Z,2.40
2019-03-04T21:17:19.615Z,2.70
2019-03-04T21:19:56.076Z,2.63
2019-03-04T21:22:29.640Z,2.30
2019-03-04T21:25:01.381Z,2.70
2019-03-04T21:27:34.088Z,2.83
2019-03-04T21:30:57.727Z,3.47
2019-03-04T21:34:06.905Z,2.33
2019-03-04T21:37:03.766Z,2.80
2019-03-04T21:39:36.826Z,2.20
2019-03-04T21:42:38.467Z,2.77
2019-03-04T21:45:51.540Z,2.27
2019-03-04T21:48:45.849Z,2.50
2019-03-04T21:52:19.795Z,2.63
2019-03-04T21:54:44.613Z,2.77
2019-03-04T21:57:47.950Z,2.60
2019-03-04T22:00:34.147Z,2.60
2019-03-04T22:03:22.551Z,2.60
2019-03-04T22:05:54.956Z,2.63
2019-03-04T22:08:26.847Z,2.90
2019-03-04T22:10:59.427Z,3.17
2019-03-04T22:13:31.482Z,3.00
2019-03-04T22:16:03.475Z,2.70
2019-03-04T22:18:35.427Z,3.07
2019-03-04T22:21:16.269Z,3.30
2019-03-04T22:23:41.117Z,3.00
2019-03-04T22:26:13.174Z,3.33
2019-03-04T22:28:45.072Z,3.37
2019-03-04T22:31:17.243Z,3.37
2019-03-04T22:33:49.214Z,3.77
2019-03-04T22:36:21.172Z,3.90
2019-03-04T22:38:53.108Z,3.13
2019-03-04T22:41:26.277Z,3.03
2019-03-04T22:43:58.059Z,3.47
2019-03-04T22:46:29.998Z,3.33
2019-03-04T22:49:01.820Z,3.23
2019-03-04T22:51:33.713Z,3.83
2019-03-04T22:54:05.918Z,3.70
2019-03-04T22:56:38.370Z,3.67
2019-03-04T22:59:17.910Z,4.03
2019-03-04T23:02:07.268Z,3.90
2019-03-04T23:05:16.477Z,4.03
2019-03-04T23:07:52.220Z,4.33
2019-03-04T23:10:46.997Z,4.23
2019-03-04T23:14:00.885Z,4.43
2019-03-04T23:16:34.976Z,4.77
2019-03-04T23:19:06.806Z,4.20
2019-03-04T23:21:38.761Z,4.90
2019-03-04T23:24:10.648Z,4.97
2019-03-04T23:26:42.327Z,5.03
2019-03-04T23:29:14.040Z,4.90
2019-03-04T23:31:45.950Z,5.17
2019-03-04T23:34:17.837Z,4.30
2019-03-04T23:36:49.812Z,4.43
2019-03-04T23:39:21.745Z,4.47
2019-03-04T23:41:53.722Z,4.47
2019-03-04T23:44:25.607Z,4.60
2019-03-04T23:46:57.596Z,4.30
2019-03-04T23:49:29.443Z,4.60
2019-03-04T23:52:00.883Z,5.33
2019-03-04T23:54:32.663Z,4.83
2019-03-04T23:57:04.582Z,4.93
2019-03-04T23:59:36.307Z,5.37
